createdAt,value
2017-10-27T00:02:18.722Z,43.40
2017-10-27T00:04:47.043Z,45.60
2017-10-27T00:07:14.568Z,43.17
2017-10-27T00:09:42.867Z,48.63
2017-10-27T00:12:10.422Z,43.13
2017-10-27T00:14:38.701Z,44.67
2017-10-27T00:17:06.243Z,63.23
2017-10-27T00:19:34.560Z,44.43
2017-10-27T00:22:02.107Z,50.20
2017-10-27T00:24:29.621Z,37.03
2017-10-27T00:26:57.133Z,42.80
2017-10-27T00:29:24.672Z,50.67
2017-10-27T00:31:52.185Z,43.70
2017-10-27T00:34:20.486Z,41.83
2017-10-27T00:36:48.783Z,39.70
2017-10-27T00:39:16.329Z,39.13
2017-10-27T00:41:44.623Z,32.60
2017-10-27T00:44:12.146Z,40.17
2017-10-27T00:46:39.684Z,41.17
2017-10-27T00:49:07.220Z,30.83
2017-10-27T00:51:34.758Z,37.43
2017-10-27T00:54:02.297Z,40.60
2017-10-27T00:56:30.609Z,32.50
2017-10-27T00:58:58.135Z,25.70
2017-10-27T01:01:26.437Z,43.37
2017-10-27T01:03:54.012Z,28.40
2017-10-27T01:06:21.550Z,35.33
2017-10-27T01:08:49.095Z,36.60
2017-10-27T01:11:17.373Z,34.10
2017-10-27T01:13:44.918Z,33.57
2017-10-27T01:16:13.201Z,24.70
2017-10-27T01:18:41.482Z,20.90
2017-10-27T01:21:09.774Z,24.77
2017-10-27T01:23:37.289Z,25.07
2017-10-27T01:26:04.825Z,16.60
2017-10-27T01:28:32.357Z,19.07
2017-10-27T01:30:59.891Z,22.90
2017-10-27T01:33:28.190Z,23.10
2017-10-27T01:35:55.705Z,24.87
2017-10-27T01:38:23.999Z,20.93
2017-10-27T01:40:52.277Z,14.13
2017-10-27T01:43:20.584Z,18.50
2017-10-27T01:45:48.115Z,28.17
2017-10-27T01:48:15.670Z,32.50
2017-10-27T01:50:43.958Z,24.60
2017-10-27T01:53:11.477Z,26.77
2017-10-27T01:55:39.013Z,21.63
2017-10-27T01:58:06.535Z,18.80
2017-10-27T02:00:34.073Z,17.07
2017-10-27T02:03:02.361Z,23.87
2017-10-27T02:05:29.909Z,20.00
2017-10-27T02:07:58.201Z,40.90
2017-10-27T02:10:26.472Z,28.10
2017-10-27T02:12:54.787Z,28.70
2017-10-27T02:15:22.384Z,30.60
2017-10-27T02:17:49.995Z,26.50
2017-10-27T02:20:17.519Z,20.60
2017-10-27T02:22:45.835Z,25.13
2017-10-27T02:25:13.360Z,22.93
2017-10-27T02:27:40.877Z,20.87
2017-10-27T02:30:08.432Z,16.40
2017-10-27T02:32:35.972Z,20.60
2017-10-27T02:35:03.510Z,20.27
2017-10-27T02:37:31.035Z,21.83
2017-10-27T02:39:58.587Z,16.53
2017-10-27T02:42:26.124Z,12.20
2017-10-27T02:44:53.652Z,19.97
2017-10-27T02:47:21.202Z,12.97
2017-10-27T02:49:48.716Z,19.97
2017-10-27T02:52:16.267Z,13.43
2017-10-27T02:54:43.811Z,16.20
2017-10-27T02:57:11.375Z,14.60
2017-10-27T02:59:38.886Z,10.40
2017-10-27T03:02:06.422Z,18.63
2017-10-27T03:04:33.963Z,20.80
2017-10-27T03:07:01.477Z,17.33
2017-10-27T03:09:29.020Z,10.20
2017-10-27T03:11:56.542Z,18.30
2017-10-27T03:14:24.080Z,23.43
2017-10-27T03:16:51.605Z,16.77
2017-10-27T03:19:19.121Z,19.27
2017-10-27T03:21:46.650Z,21.97
2017-10-27T03:24:14.175Z,19.30
2017-10-27T03:26:41.701Z,18.57
2017-10-27T03:29:09.214Z,16.67
2017-10-27T03:31:36.757Z,21.17
2017-10-27T03:34:04.269Z,17.80
2017-10-27T03:36:31.798Z,19.50
2017-10-27T03:38:59.329Z,19.90
2017-10-27T03:41:26.848Z,21.10
2017-10-27T03:43:54.373Z,25.67
2017-10-27T03:46:21.895Z,18.30
2017-10-27T03:48:50.210Z,19.50
2017-10-27T03:51:17.728Z,25.97
2017-10-27T03:53:45.240Z,21.90
2017-10-27T03:56:12.768Z,16.23
2017-10-27T03:58:40.277Z,17.53
2017-10-27T04:01:07.801Z,24.30
2017-10-27T04:03:35.316Z,21.33
2017-10-27T04:06:03.624Z,19.97
2017-10-27T04:08:31.132Z,21.60
2017-10-27T04:10:58.691Z,25.30
2017-10-27T04:13:26.224Z,23.70
2017-10-27T04:15:53.732Z,25.17
2017-10-27T04:18:21.275Z,18.27
2017-10-27T04:20:49.545Z,29.70
2017-10-27T04:23:17.082Z,31.57
2017-10-27T04:25:44.602Z,16.93
2017-10-27T04:28:12.138Z,25.10
2017-10-27T04:30:40.423Z,27.37
2017-10-27T04:33:07.928Z,27.50
2017-10-27T04:35:35.452Z,19.27
2017-10-27T04:38:02.975Z,24.63
2017-10-27T04:40:31.270Z,36.47
2017-10-27T04:42:58.795Z,21.53
2017-10-27T04:45:26.347Z,22.20
2017-10-27T04:47:53.861Z,23.53
2017-10-27T04:50:21.369Z,34.17
2017-10-27T04:52:48.887Z,24.53
2017-10-27T04:55:16.397Z,18.77
2017-10-27T04:57:43.939Z,26.63
2017-10-27T05:00:11.457Z,29.53
2017-10-27T05:02:39.002Z,21.60
2017-10-27T05:05:06.513Z,20.67
2017-10-27T05:07:34.021Z,24.47
2017-10-27T05:10:01.567Z,23.00
2017-10-27T05:12:29.841Z,26.47
2017-10-27T05:14:58.146Z,16.67
2017-10-27T05:17:31.273Z,19.20
2017-10-27T05:20:04.470Z,15.50
2017-10-27T05:22:37.704Z,24.33
2017-10-27T05:25:05.233Z,26.10
2017-10-27T05:27:33.527Z,30.40
2017-10-27T05:30:01.831Z,25.27
2017-10-27T05:32:29.337Z,19.13
2017-10-27T05:34:56.861Z,26.20
2017-10-27T05:37:24.366Z,11.07
2017-10-27T05:39:53.424Z,24.10
2017-10-27T05:42:20.957Z,21.23
2017-10-27T05:44:48.499Z,24.37
2017-10-27T05:47:16.027Z,20.73
2017-10-27T05:49:44.326Z,27.00
2017-10-27T05:52:12.594Z,20.90
2017-10-27T05:54:40.883Z,22.90
2017-10-27T05:57:08.455Z,23.20
2017-10-27T05:59:35.998Z,26.07
2017-10-27T06:02:03.519Z,33.53
2017-10-27T06:04:31.067Z,19.53
2017-10-27T06:06:58.599Z,17.83
2017-10-27T06:09:26.118Z,27.90
2017-10-27T06:11:54.407Z,20.53
2017-10-27T06:14:22.685Z,16.70
2017-10-27T06:16:50.224Z,25.50
2017-10-27T06:19:18.511Z,21.93
2017-10-27T06:21:46.814Z,17.00
2017-10-27T06:24:14.329Z,21.53
2017-10-27T06:26:41.866Z,28.40
2017-10-27T06:29:09.391Z,21.33
2017-10-27T06:31:36.924Z,15.33
2017-10-27T06:34:05.192Z,15.67
2017-10-27T06:36:33.469Z,14.67
2017-10-27T06:39:01.769Z,17.57
2017-10-27T06:41:29.279Z,14.17
2017-10-27T06:43:58.326Z,16.50
2017-10-27T06:46:25.828Z,16.23
2017-10-27T06:48:54.888Z,11.93
2017-10-27T06:51:22.416Z,10.67
2017-10-27T06:53:50.717Z,18.40
2017-10-27T06:56:18.236Z,16.83
2017-10-27T06:58:46.513Z,7.50
2017-10-27T07:01:14.820Z,12.77
2017-10-27T07:03:42.386Z,15.93
2017-10-27T07:06:09.912Z,10.40
2017-10-27T07:08:38.184Z,11.73
2017-10-27T07:11:06.476Z,15.13
2017-10-27T07:13:34.758Z,13.73
2017-10-27T07:16:02.283Z,11.50
2017-10-27T07:18:29.790Z,25.27
2017-10-27T07:20:57.338Z,15.13
2017-10-27T07:23:24.852Z,23.17
2017-10-27T07:25:52.368Z,18.63
2017-10-27T07:28:19.910Z,18.80
2017-10-27T07:30:47.420Z,12.50
2017-10-27T07:33:14.967Z,13.10
2017-10-27T07:35:42.493Z,9.93
2017-10-27T07:38:10.047Z,10.83
2017-10-27T07:40:37.575Z,12.17
2017-10-27T07:43:05.876Z,13.70
2017-10-27T07:45:34.140Z,9.30
2017-10-27T07:48:02.461Z,15.47
2017-10-27T07:50:29.969Z,14.20
2017-10-27T07:52:58.240Z,9.47
2017-10-27T07:55:26.536Z,14.23
2017-10-27T07:57:54.062Z,11.00
2017-10-27T08:00:21.603Z,15.43
2017-10-27T08:02:49.108Z,14.23
2017-10-27T08:05:17.401Z,11.30
2017-10-27T08:07:44.908Z,10.60
2017-10-27T08:10:12.446Z,12.67
2017-10-27T08:12:39.949Z,16.40
2017-10-27T08:15:08.259Z,20.33
2017-10-27T08:17:35.783Z,17.23
2017-10-27T08:20:04.096Z,20.60
2017-10-27T08:22:31.604Z,13.83
2017-10-27T08:24:59.129Z,12.90
2017-10-27T08:27:26.672Z,13.83
2017-10-27T08:29:54.216Z,14.47
2017-10-27T08:32:21.742Z,14.07
2017-10-27T08:34:49.284Z,6.70
2017-10-27T08:37:16.792Z,12.97
2017-10-27T08:39:44.342Z,11.17
2017-10-27T08:42:23.945Z,19.30
2017-10-27T08:44:51.493Z,18.70
2017-10-27T08:47:19.014Z,6.60
2017-10-27T08:49:46.539Z,12.67
2017-10-27T08:52:14.843Z,6.30
2017-10-27T08:54:42.357Z,19.73
2017-10-27T08:57:09.902Z,15.23
2017-10-27T08:59:37.423Z,14.03
2017-10-27T09:02:04.975Z,7.63
2017-10-27T09:04:32.488Z,12.70
2017-10-27T09:06:59.993Z,8.63
2017-10-27T09:09:27.541Z,27.37
2017-10-27T09:11:56.003Z,13.03
2017-10-27T09:14:25.149Z,14.67
2017-10-27T09:16:52.678Z,19.63
2017-10-27T09:19:21.004Z,17.37
2017-10-27T09:21:48.539Z,12.87
2017-10-27T09:24:16.072Z,19.03
2017-10-27T09:26:43.623Z,17.40
2017-10-27T09:29:11.931Z,8.97
2017-10-27T09:31:39.504Z,10.50
2017-10-27T09:34:07.165Z,12.90
2017-10-27T09:36:34.704Z,13.33
2017-10-27T09:39:02.227Z,10.20
2017-10-27T09:41:30.535Z,15.67
2017-10-27T09:43:58.135Z,15.20
2017-10-27T09:46:25.666Z,12.47
2017-10-27T09:48:53.167Z,7.70
2017-10-27T09:51:21.485Z,12.03
2017-10-27T09:53:49.028Z,14.07
2017-10-27T09:56:17.336Z,16.00
2017-10-27T09:58:44.855Z,21.50
2017-10-27T10:01:13.125Z,9.87
2017-10-27T10:03:40.645Z,13.70
2017-10-27T10:06:08.153Z,28.93
2017-10-27T10:08:36.465Z,14.90
2017-10-27T10:11:03.978Z,6.77
2017-10-27T10:13:31.514Z,15.73
2017-10-27T10:15:59.805Z,16.63
2017-10-27T10:18:27.351Z,10.77
2017-10-27T10:20:54.852Z,15.90
2017-10-27T10:23:23.120Z,12.50
2017-10-27T10:25:51.413Z,11.87
2017-10-27T10:28:18.921Z,16.60
2017-10-27T10:30:46.452Z,10.87
2017-10-27T10:33:13.979Z,11.43
2017-10-27T10:35:41.522Z,9.43
2017-10-27T10:38:09.807Z,15.93
2017-10-27T10:40:38.103Z,9.70
2017-10-27T10:43:05.647Z,14.50
2017-10-27T10:45:33.930Z,10.00
2017-10-27T10:48:01.449Z,15.67
2017-10-27T10:50:28.952Z,13.67
2017-10-27T10:52:56.492Z,10.07
2017-10-27T10:55:24.786Z,11.83
2017-10-27T10:57:52.305Z,10.33
2017-10-27T11:00:19.839Z,14.70
2017-10-27T11:02:47.373Z,16.40
2017-10-27T11:05:14.881Z,16.93
2017-10-27T11:07:43.161Z,16.53
2017-10-27T11:10:10.680Z,11.40
2017-10-27T11:12:38.198Z,8.47
2017-10-27T11:15:06.500Z,11.40
2017-10-27T11:17:34.028Z,17.07
2017-10-27T11:20:02.338Z,9.47
2017-10-27T11:22:29.859Z,12.67
2017-10-27T11:24:58.146Z,14.20
2017-10-27T11:27:26.450Z,15.73
2017-10-27T11:29:53.982Z,19.00
2017-10-27T11:32:21.529Z,8.33
2017-10-27T11:34:49.801Z,6.63
2017-10-27T11:37:18.106Z,7.63
2017-10-27T11:39:45.617Z,3.60
2017-10-27T11:42:14.644Z,8.93
2017-10-27T11:44:42.937Z,12.00
2017-10-27T11:47:10.454Z,9.13
2017-10-27T11:49:38.762Z,10.30
2017-10-27T11:52:06.274Z,7.70
2017-10-27T11:54:33.820Z,15.17
2017-10-27T11:57:01.338Z,15.53
2017-10-27T11:59:28.872Z,5.00
2017-10-27T12:01:57.150Z,6.30
2017-10-27T12:04:24.681Z,5.13
2017-10-27T12:06:52.193Z,5.33
2017-10-27T12:09:19.692Z,4.70
2017-10-27T12:11:47.219Z,8.30
2017-10-27T12:14:14.762Z,9.20
2017-10-27T12:16:42.297Z,9.70
2017-10-27T12:19:09.872Z,7.30
2017-10-27T12:21:38.178Z,7.33
2017-10-27T12:24:05.726Z,10.30
2017-10-27T12:26:33.243Z,12.47
2017-10-27T12:29:00.799Z,8.80
2017-10-27T12:31:28.315Z,8.10
2017-10-27T12:33:55.879Z,8.40
2017-10-27T12:36:23.376Z,5.00
2017-10-27T12:38:50.939Z,11.23
2017-10-27T12:41:18.459Z,9.00
2017-10-27T12:43:46.015Z,14.70
2017-10-27T12:46:13.530Z,6.50
2017-10-27T12:48:41.815Z,4.27
2017-10-27T12:51:10.117Z,14.37
2017-10-27T12:53:37.651Z,8.83
2017-10-27T12:56:05.941Z,9.23
2017-10-27T12:58:33.450Z,5.83
2017-10-27T13:01:01.020Z,10.67
2017-10-27T13:03:28.525Z,20.43
2017-10-27T13:05:56.087Z,11.67
2017-10-27T13:08:23.601Z,4.23
2017-10-27T13:13:31.874Z,14.03
2017-10-27T13:15:59.417Z,14.10
2017-10-27T13:18:26.956Z,20.23
2017-10-27T13:20:55.244Z,10.50
2017-10-27T13:23:23.537Z,18.17
2017-10-27T13:25:51.066Z,16.30
2017-10-27T13:28:19.375Z,8.73
2017-10-27T13:30:46.873Z,8.20
2017-10-27T13:33:14.381Z,17.37
2017-10-27T13:35:41.933Z,25.50
2017-10-27T13:38:09.452Z,20.23
2017-10-27T13:40:36.987Z,7.90
2017-10-27T13:43:04.506Z,7.20
2017-10-27T13:45:32.048Z,5.80
2017-10-27T13:48:00.512Z,9.80
2017-10-27T13:50:29.221Z,22.10
2017-10-27T13:52:56.752Z,8.30
2017-10-27T13:55:24.332Z,20.20
2017-10-27T13:57:51.890Z,10.30
2017-10-27T14:00:20.284Z,13.83
2017-10-27T14:02:47.839Z,8.53
2017-10-27T14:05:16.118Z,17.20
2017-10-27T14:07:44.423Z,6.30
2017-10-27T14:10:11.942Z,12.17
2017-10-27T14:12:40.255Z,10.70
2017-10-27T14:15:07.761Z,12.93
2017-10-27T14:17:36.789Z,6.53
2017-10-27T14:20:04.297Z,11.97
2017-10-27T14:22:31.834Z,8.17
2017-10-27T14:24:59.371Z,7.27
2017-10-27T14:27:27.455Z,11.10
2017-10-27T14:29:56.274Z,11.17
2017-10-27T14:32:23.882Z,8.37
2017-10-27T14:34:51.411Z,16.70
2017-10-27T14:37:18.931Z,14.00
2017-10-27T14:39:46.457Z,10.43
2017-10-27T14:42:13.970Z,9.10
2017-10-27T14:44:41.506Z,13.63
2017-10-27T14:47:09.031Z,11.00
2017-10-27T14:49:36.564Z,11.10
2017-10-27T14:52:04.083Z,9.97
2017-10-27T14:54:31.581Z,6.80
2017-10-27T14:56:59.904Z,7.30
2017-10-27T14:59:27.432Z,12.40
2017-10-27T15:01:55.711Z,6.17
2017-10-27T15:04:23.985Z,14.00
2017-10-27T15:06:52.276Z,10.03
2017-10-27T15:09:19.806Z,8.57
2017-10-27T15:11:48.115Z,12.50
2017-10-27T15:14:15.633Z,14.80
2017-10-27T15:16:43.165Z,15.80
2017-10-27T15:19:10.681Z,9.73
2017-10-27T15:21:38.467Z,11.33
2017-10-27T15:24:06.941Z,8.97
2017-10-27T15:26:34.862Z,12.97
2017-10-27T15:29:02.682Z,9.10
2017-10-27T15:31:30.500Z,6.97
2017-10-27T15:33:58.079Z,10.37
2017-10-27T15:36:25.589Z,10.20
2017-10-27T15:38:53.135Z,15.70
2017-10-27T15:41:20.667Z,7.70
2017-10-27T15:43:48.207Z,11.27
2017-10-27T15:46:16.499Z,8.43
2017-10-27T15:48:44.380Z,14.17
2017-10-27T15:51:11.932Z,15.53
2017-10-27T15:53:39.456Z,12.03
2017-10-27T15:56:06.957Z,4.87
2017-10-27T15:58:34.502Z,7.20
2017-10-27T16:01:02.026Z,10.73
2017-10-27T16:03:29.552Z,11.77
2017-10-27T16:05:57.081Z,9.13
2017-10-27T16:08:24.620Z,9.77
2017-10-27T16:10:52.151Z,9.10
2017-10-27T16:13:19.787Z,5.07
2017-10-27T16:15:47.293Z,17.13
2017-10-27T16:18:15.621Z,7.00
2017-10-27T16:20:43.129Z,12.03
2017-10-27T16:23:11.868Z,11.23
2017-10-27T16:25:39.773Z,7.60
2017-10-27T16:28:07.304Z,18.83
2017-10-27T16:30:34.841Z,7.80
2017-10-27T16:33:02.362Z,8.27
2017-10-27T16:35:30.669Z,22.10
2017-10-27T16:37:58.184Z,16.83
2017-10-27T16:40:26.469Z,6.27
2017-10-27T16:42:54.784Z,11.17
2017-10-27T16:45:22.303Z,5.90
2017-10-27T16:47:50.611Z,10.00
2017-10-27T16:50:18.141Z,8.87
2017-10-27T16:52:46.450Z,11.47
2017-10-27T16:55:13.979Z,14.13
2017-10-27T16:57:42.268Z,14.13
2017-10-27T17:00:09.777Z,10.23
2017-10-27T17:02:37.305Z,14.20
2017-10-27T17:05:04.820Z,10.60
2017-10-27T17:07:33.113Z,9.87
2017-10-27T17:10:00.624Z,7.10
2017-10-27T17:12:28.182Z,12.93
2017-10-27T17:14:55.713Z,9.50
2017-10-27T17:17:23.256Z,16.47
2017-10-27T17:19:50.792Z,14.87
2017-10-27T17:22:19.068Z,18.47
2017-10-27T17:24:47.375Z,24.27
2017-10-27T17:27:14.880Z,10.43
2017-10-27T17:29:42.474Z,6.47
2017-10-27T17:32:10.796Z,15.20
2017-10-27T17:34:38.295Z,6.37
2017-10-27T17:37:06.579Z,6.93
2017-10-27T17:39:34.866Z,13.37
2017-10-27T17:42:02.395Z,7.10
2017-10-27T17:44:29.913Z,10.30
2017-10-27T17:46:57.449Z,6.10
2017-10-27T17:49:24.985Z,13.27
2017-10-27T17:51:53.290Z,12.03
2017-10-27T17:54:20.834Z,14.30
2017-10-27T17:56:48.381Z,10.63
2017-10-27T17:59:16.673Z,12.67
2017-10-27T18:01:44.211Z,9.33
2017-10-27T18:04:12.485Z,10.97
2017-10-27T18:06:40.778Z,8.90
2017-10-27T18:09:08.323Z,5.00
2017-10-27T18:11:36.626Z,9.13
2017-10-27T18:14:04.132Z,10.57
2017-10-27T18:16:31.682Z,4.43
2017-10-27T18:18:59.200Z,8.30
2017-10-27T18:21:26.747Z,15.97
2017-10-27T18:23:55.042Z,14.07
2017-10-27T18:26:22.578Z,8.13
2017-10-27T18:28:50.892Z,13.70
2017-10-27T18:31:18.428Z,10.80
2017-10-27T18:33:45.980Z,13.43
2017-10-27T18:36:13.530Z,10.47
2017-10-27T18:38:41.821Z,16.83
2017-10-27T18:41:09.349Z,16.30
2017-10-27T18:43:36.894Z,14.77
2017-10-27T18:46:04.418Z,17.80
2017-10-27T18:48:31.941Z,15.63
2017-10-27T18:51:00.227Z,31.23
2017-10-27T18:53:27.767Z,16.80
2017-10-27T18:55:56.060Z,12.07
2017-10-27T18:58:23.580Z,9.13
2017-10-27T19:00:51.083Z,11.83
2017-10-27T19:03:18.605Z,17.03
2017-10-27T19:05:47.633Z,11.37
2017-10-27T19:08:15.190Z,14.60
2017-10-27T19:10:42.718Z,11.60
2017-10-27T19:13:10.331Z,8.50
2017-10-27T19:15:37.848Z,9.30
2017-10-27T19:18:06.123Z,18.87
2017-10-27T19:20:34.413Z,11.57
2017-10-27T19:23:01.939Z,10.80
2017-10-27T19:25:29.458Z,15.23
2017-10-27T19:27:56.983Z,15.77
2017-10-27T19:30:25.411Z,19.63
2017-10-27T19:32:52.909Z,14.33
2017-10-27T19:35:21.180Z,13.13
2017-10-27T19:37:48.720Z,10.80
2017-10-27T19:40:16.232Z,12.53
2017-10-27T19:42:43.752Z,11.50
2017-10-27T19:45:11.253Z,8.07
2017-10-27T19:47:38.789Z,15.27
2017-10-27T19:50:07.071Z,26.77
2017-10-27T19:52:35.391Z,15.77
2017-10-27T19:55:03.718Z,8.30
2017-10-27T19:57:31.985Z,24.20
2017-10-27T20:00:00.306Z,19.60
2017-10-27T20:02:27.818Z,14.67
2017-10-27T20:04:56.144Z,10.43
2017-10-27T20:07:23.659Z,12.07
2017-10-27T20:09:52.008Z,13.37
2017-10-27T20:12:19.533Z,15.67
2017-10-27T20:14:47.045Z,10.77
2017-10-27T20:17:14.564Z,18.27
2017-10-27T20:19:42.088Z,15.60
2017-10-27T20:22:09.631Z,13.57
2017-10-27T20:24:37.922Z,15.80
2017-10-27T20:27:05.457Z,15.00
2017-10-27T20:29:33.724Z,15.30
2017-10-27T20:32:01.262Z,15.23
2017-10-27T20:34:28.802Z,26.40
2017-10-27T20:36:56.305Z,12.10
2017-10-27T20:39:24.597Z,13.60
2017-10-27T20:41:52.859Z,16.87
2017-10-27T20:44:20.405Z,18.57
2017-10-27T20:46:47.923Z,23.53
2017-10-27T20:49:15.458Z,20.57
2017-10-27T20:51:42.967Z,21.67
2017-10-27T20:54:10.474Z,22.07
2017-10-27T20:56:38.010Z,12.30
2017-10-27T20:59:06.289Z,15.27
2017-10-27T21:01:34.596Z,17.23
2017-10-27T21:04:02.115Z,19.57
2017-10-27T21:06:29.663Z,10.17
2017-10-27T21:08:57.187Z,21.33
2017-10-27T21:11:24.710Z,21.77
2017-10-27T21:13:52.254Z,11.37
2017-10-27T21:16:20.525Z,10.30
2017-10-27T21:18:48.064Z,17.60
2017-10-27T21:21:15.593Z,11.73
2017-10-27T21:23:43.154Z,17.57
2017-10-27T21:26:10.666Z,14.30
2017-10-27T21:28:38.191Z,25.50
2017-10-27T21:31:05.735Z,21.73
2017-10-27T21:33:33.236Z,12.87
2017-10-27T21:36:00.753Z,12.83
2017-10-27T21:38:28.247Z,9.80
2017-10-27T21:40:55.876Z,16.10
2017-10-27T21:43:23.394Z,12.47
2017-10-27T21:45:51.709Z,10.33
2017-10-27T21:48:19.217Z,10.90
2017-10-27T21:50:46.743Z,11.20
2017-10-27T21:53:14.268Z,17.97
2017-10-27T21:55:41.787Z,20.50
2017-10-27T21:58:09.315Z,6.77
2017-10-27T22:00:36.840Z,9.27
2017-10-27T22:03:04.366Z,14.57
2017-10-27T22:05:31.869Z,15.20
2017-10-27T22:07:59.415Z,19.60
2017-10-27T22:10:26.939Z,17.33
2017-10-27T22:12:54.450Z,20.63
2017-10-27T22:15:21.964Z,6.17
2017-10-27T22:17:49.473Z,13.63
2017-10-27T22:20:17.011Z,16.83
2017-10-27T22:22:44.530Z,13.83
2017-10-27T22:25:12.085Z,12.43
2017-10-27T22:27:39.603Z,12.80
2017-10-27T22:30:07.123Z,20.50
2017-10-27T22:32:35.426Z,19.40
2017-10-27T22:35:02.951Z,13.37
2017-10-27T22:37:30.486Z,11.67
2017-10-27T22:39:58.003Z,13.67
2017-10-27T22:42:25.520Z,8.93
2017-10-27T22:44:53.020Z,7.40
2017-10-27T22:47:20.544Z,13.30
2017-10-27T22:49:48.063Z,14.23
2017-10-27T22:52:15.565Z,21.57
2017-10-27T22:54:43.857Z,14.90
2017-10-27T22:57:12.138Z,9.03
2017-10-27T22:59:39.661Z,15.03
2017-10-27T23:02:07.179Z,15.57
2017-10-27T23:04:34.719Z,16.63
2017-10-27T23:07:02.239Z,11.23
2017-10-27T23:09:29.760Z,10.93
2017-10-27T23:11:57.262Z,10.30
2017-10-27T23:14:25.579Z,16.03
2017-10-27T23:16:53.083Z,26.13
2017-10-27T23:19:20.598Z,15.50
2017-10-27T23:21:48.117Z,10.43
2017-10-27T23:24:16.403Z,11.63
2017-10-27T23:26:44.701Z,10.27
2017-10-27T23:29:12.201Z,15.03
2017-10-27T23:31:39.739Z,15.13
2017-10-27T23:34:07.255Z,9.87
2017-10-27T23:36:35.564Z,27.70
2017-10-27T23:39:03.087Z,18.47
2017-10-27T23:41:31.356Z,10.80
2017-10-27T23:43:58.894Z,12.27
2017-10-27T23:46:26.419Z,6.47
2017-10-27T23:48:53.946Z,17.50
2017-10-27T23:51:21.448Z,17.77
2017-10-27T23:53:48.986Z,11.23
2017-10-27T23:56:16.492Z,23.10
2017-10-27T23:58:44.016Z,9.50
